Time;durP1;ratioP1;P1;durP2;ratioP2;P2;SDS_P1;SDS_P2;PMS_P1;PMS_P2;Temp;Humidity;BMP_temperature;BMP_pressure;BME280_temperature;BME280_humidity;BME280_pressure;Samples;Min_cycle;Max_cycle;Signal;HPM_P1;HPM_P2
2023/05/28 00:00:26;;;;;;;11.65;4.57;;;;;;;18.47;42.41;100770.25;4109567;28;20579;-69
2023/05/28 00:02:48;;;;;;;12.95;5.20;;;;;;;18.49;42.62;100768.50;4110552;28;20053;-69
2023/05/28 00:05:10;;;;;;;10.38;4.40;;;;;;;18.42;42.99;100767.69;4125777;28;20054;-69
2023/05/28 00:07:33;;;;;;;14.32;4.25;;;;;;;18.38;43.08;100760.72;4112702;28;20093;-68
2023/05/28 00:09:55;;;;;;;8.80;4.85;;;;;;;18.34;43.25;100766.94;4112423;28;20089;-69
2023/05/28 00:12:17;;;;;;;13.18;5.75;;;;;;;18.29;43.74;100764.34;4115117;28;20061;-69
2023/05/28 00:14:38;;;;;;;10.40;5.40;;;;;;;18.37;43.64;100772.16;4113931;28;20073;-69
2023/05/28 00:17:00;;;;;;;11.75;4.20;;;;;;;18.30;43.65;100765.22;4124440;28;20129;-69
2023/05/28 00:19:21;;;;;;;8.98;4.35;;;;;;;18.27;43.62;100762.63;4126325;28;20194;-69
2023/05/28 00:21:43;;;;;;;10.38;4.60;;;;;;;18.26;43.65;100767.00;4113139;28;20045;-69
2023/05/28 00:24:06;;;;;;;10.20;4.28;;;;;;;18.21;44.10;100767.97;4124652;28;20081;-69
2023/05/28 00:26:28;;;;;;;11.75;4.60;;;;;;;18.13;44.28;100766.28;4116568;28;20407;-69
2023/05/28 00:28:51;;;;;;;11.82;4.80;;;;;;;18.10;44.31;100765.47;4126936;28;20049;-69
2023/05/28 00:31:13;;;;;;;12.13;5.55;;;;;;;18.05;44.95;100762.91;4119732;28;20101;-69
2023/05/28 00:33:35;;;;;;;10.25;4.90;;;;;;;18.03;44.91;100769.91;4126617;28;20631;-69
2023/05/28 00:35:57;;;;;;;11.20;4.88;;;;;;;17.99;45.20;100773.50;4113820;28;20537;-69
2023/05/28 00:38:18;;;;;;;7.15;4.25;;;;;;;17.97;45.64;100770.00;4125897;28;20046;-69
2023/05/28 00:40:45;;;;;;;11.20;4.80;;;;;;;17.99;45.39;100768.25;4126513;28;20045;-69
2023/05/28 00:43:07;;;;;;;9.45;4.72;;;;;;;17.92;45.72;100767.41;4124499;28;20054;-69
2023/05/28 00:45:28;;;;;;;12.98;5.47;;;;;;;17.90;45.92;100763.94;4115436;28;20053;-69
2023/05/28 00:47:50;;;;;;;11.70;5.65;;;;;;;17.88;46.23;100764.81;4127847;28;20126;-69
2023/05/28 00:50:13;;;;;;;13.88;4.93;;;;;;;17.82;46.42;100763.13;4127734;28;20105;-69
2023/05/28 00:52:35;;;;;;;8.45;4.40;;;;;;;17.79;46.37;100769.28;4110452;28;20093;-69
2023/05/28 00:54:57;;;;;;;9.02;4.80;;;;;;;17.77;47.18;100770.16;4126432;28;20097;-69
2023/05/28 00:57:21;;;;;;;9.98;4.90;;;;;;;17.74;47.88;100770.22;4124577;28;20054;-69
2023/05/28 00:59:43;;;;;;;11.88;5.32;;;;;;;17.69;47.96;100769.41;4112781;28;20433;-69
2023/05/28 01:02:05;;;;;;;12.63;4.97;;;;;;;17.66;47.94;100764.19;4113032;28;20150;-70
2023/05/28 01:04:28;;;;;;;14.23;4.90;;;;;;;17.62;48.37;100764.22;4114117;28;20061;-69
2023/05/28 01:06:50;;;;;;;10.75;4.82;;;;;;;17.56;48.63;100763.38;4124772;28;20093;-69
2023/05/28 01:09:13;;;;;;;11.75;5.18;;;;;;;17.44;49.11;100759.97;4125423;28;20048;-69
2023/05/28 01:11:35;;;;;;;12.57;5.22;;;;;;;17.32;49.46;100760.09;4126912;28;20049;-69
2023/05/28 01:13:58;;;;;;;9.30;4.82;;;;;;;17.25;49.47;100761.03;4114363;28;20118;-69
2023/05/28 01:16:20;;;;;;;8.80;4.68;;;;;;;17.20;49.92;100761.09;4124911;28;20419;-69
2023/05/28 01:18:44;;;;;;;9.57;5.15;;;;;;;17.19;50.67;100761.09;4114761;28;20527;-69
2023/05/28 01:21:06;;;;;;;12.60;4.93;;;;;;;17.14;50.57;100766.38;4122331;28;20124;-69
2023/05/28 01:23:29;;;;;;;15.30;5.32;;;;;;;17.12;50.36;100767.28;4111666;28;20603;-68
2023/05/28 01:25:55;;;;;;;10.30;4.88;;;;;;;17.11;50.35;100761.16;4126781;28;20480;-69
2023/05/28 01:28:16;;;;;;;9.55;4.68;;;;;;;17.06;50.38;100757.69;4124887;28;20101;-69
2023/05/28 01:30:38;;;;;;;12.77;5.30;;;;;;;17.03;50.63;100757.72;4110461;28;20194;-69
2023/05/28 01:33:00;;;;;;;8.48;5.00;;;;;;;17.01;50.35;100754.22;4113837;28;20204;-69
2023/05/28 01:35:22;;;;;;;12.25;5.43;;;;;;;17.01;50.47;100755.13;4125379;28;20101;-69
2023/05/28 01:37:47;;;;;;;11.15;5.68;;;;;;;17.06;50.34;100755.06;4111080;28;21101;-69
2023/05/28 01:40:10;;;;;;;9.73;5.33;;;;;;;17.01;51.04;100757.75;4126462;28;20086;-69
2023/05/28 01:42:35;;;;;;;14.18;6.10;;;;;;;16.97;51.24;100753.38;4113427;28;20101;-69
2023/05/28 01:44:58;;;;;;;11.93;5.15;;;;;;;16.94;51.55;100750.78;4127690;28;20089;-69
2023/05/28 01:47:20;;;;;;;9.60;5.13;;;;;;;16.92;52.04;100752.53;4110859;28;20193;-69
2023/05/28 01:49:42;;;;;;;12.18;5.53;;;;;;;16.88;52.20;100751.69;4121817;28;20121;-69
2023/05/28 01:52:05;;;;;;;14.75;6.03;;;;;;;16.82;52.51;100748.19;4110869;28;20042;-69
2023/05/28 01:54:27;;;;;;;15.52;5.75;;;;;;;16.82;52.15;100750.81;4114247;28;20412;-68
2023/05/28 01:56:49;;;;;;;11.10;5.28;;;;;;;16.79;52.10;100751.72;4110251;28;20041;-69
2023/05/28 01:59:12;;;;;;;14.65;6.40;;;;;;;16.75;51.93;100745.63;4112262;28;20046;-69
2023/05/28 02:01:35;;;;;;;9.75;5.68;;;;;;;16.76;51.95;100749.09;4113455;28;20105;-69
2023/05/28 02:04:02;;;;;;;12.43;5.78;;;;;;;16.77;51.83;100757.88;4106906;28;20460;-69
2023/05/28 02:06:25;;;;;;;11.60;5.18;;;;;;;16.72;52.15;100757.91;4107330;28;20527;-69
2023/05/28 02:08:46;;;;;;;14.73;6.43;;;;;;;16.73;51.83;100744.78;4126900;28;20073;-69
2023/05/28 02:11:08;;;;;;;12.45;5.55;;;;;;;16.75;50.95;100748.25;4107917;28;20137;-68
2023/05/28 02:13:30;;;;;;;8.40;5.30;;;;;;;16.71;51.08;100757.03;4112924;28;20049;-68
2023/05/28 02:15:53;;;;;;;12.23;6.05;;;;;;;16.78;50.44;100755.25;4112769;28;20053;-69
2023/05/28 02:18:15;;;;;;;12.18;5.75;;;;;;;16.65;50.61;100756.22;4104387;28;20094;-69
2023/05/28 02:20:37;;;;;;;12.70;4.88;;;;;;;16.64;50.78;100754.44;4124513;28;20640;-68
2023/05/28 02:22:58;;;;;;;10.10;5.43;;;;;;;16.57;50.87;100750.97;4122255;28;20119;-69
2023/05/28 02:25:20;;;;;;;14.77;5.72;;;;;;;16.54;50.49;100745.75;4122972;28;21341;-68
2023/05/28 02:27:42;;;;;;;11.45;5.47;;;;;;;16.46;50.50;100747.56;4122663;28;20590;-68
2023/05/28 02:30:05;;;;;;;9.73;5.10;;;;;;;16.42;50.67;100744.06;4110294;28;20105;-68
2023/05/28 02:32:28;;;;;;;9.63;5.40;;;;;;;16.38;51.22;100745.84;4110699;28;20422;-68
2023/05/28 02:34:50;;;;;;;11.15;5.07;;;;;;;16.32;51.28;100740.63;4111118;28;20427;-68
2023/05/28 02:37:12;;;;;;;11.90;5.70;;;;;;;16.32;51.11;100743.25;4109972;28;20114;-68
2023/05/28 02:39:33;;;;;;;14.23;5.88;;;;;;;16.25;51.36;100752.00;4111960;28;20129;-68
2023/05/28 02:41:55;;;;;;;14.27;5.45;;;;;;;16.26;51.38;100752.91;4121449;28;20531;-68
2023/05/28 02:44:16;;;;;;;9.80;5.30;;;;;;;16.26;51.41;100745.03;4123108;28;20097;-68
2023/05/28 02:46:38;;;;;;;12.40;5.55;;;;;;;16.20;51.79;100743.31;4113441;28;20539;-68
2023/05/28 02:49:01;;;;;;;14.85;5.50;;;;;;;16.25;51.60;100746.75;4127286;28;20523;-68
2023/05/28 02:51:25;;;;;;;11.52;4.95;;;;;;;16.27;51.79;100737.16;4125589;28;20193;-68
2023/05/28 02:53:59;;;;;;;14.55;6.03;;;;;;;16.10;51.70;100741.59;4120235;28;20049;-68
2023/05/28 02:56:20;;;;;;;11.57;5.80;;;;;;;16.09;51.78;100742.47;4119228;28;20049;-68
2023/05/28 02:58:42;;;;;;;12.18;5.55;;;;;;;15.99;52.23;100750.38;4112943;28;20146;-68
2023/05/28 03:01:04;;;;;;;13.63;5.53;;;;;;;16.04;51.70;100743.34;4120238;28;20101;-68
2023/05/28 03:03:25;;;;;;;12.80;5.38;;;;;;;15.99;51.43;100746.88;4125628;28;20207;-68
2023/05/28 03:05:49;;;;;;;12.27;5.57;;;;;;;15.95;52.17;100748.66;4123337;28;20081;-68
2023/05/28 03:08:10;;;;;;;13.00;6.25;;;;;;;16.00;51.77;100746.91;4106617;28;20057;-68
2023/05/28 03:10:33;;;;;;;14.00;6.80;;;;;;;16.03;51.61;100749.50;4124562;28;20134;-68
2023/05/28 03:12:54;;;;;;;17.23;6.07;;;;;;;15.95;51.77;100738.16;4122102;28;20048;-68
2023/05/28 03:15:16;;;;;;;13.07;5.55;;;;;;;15.96;51.60;100745.16;4106738;28;20544;-68
2023/05/28 03:17:38;;;;;;;13.68;6.05;;;;;;;15.93;52.01;100755.66;4124581;28;20050;-68
2023/05/28 03:19:59;;;;;;;7.53;4.70;;;;;;;15.87;52.17;100758.28;4112850;28;20432;-68
2023/05/28 03:22:22;;;;;;;11.45;5.40;;;;;;;15.81;52.36;100747.81;4106879;28;20420;-67
2023/05/28 03:24:43;;;;;;;18.80;6.30;;;;;;;15.83;52.51;100746.09;4123149;28;20129;-68
2023/05/28 03:27:07;;;;;;;10.52;5.20;;;;;;;15.83;52.36;100752.19;4103672;28;20085;-68
2023/05/28 03:29:28;;;;;;;11.95;5.78;;;;;;;15.87;52.32;100750.41;4124338;28;20591;-68
2023/05/28 03:31:54;;;;;;;9.77;4.88;;;;;;;15.79;52.55;100752.19;4122870;28;20535;-68
2023/05/28 03:34:16;;;;;;;10.73;5.63;;;;;;;15.80;52.24;100753.91;4116753;28;20054;-68
2023/05/28 03:36:38;;;;;;;12.95;6.40;;;;;;;15.79;52.19;100749.56;4111597;28;20122;-67
2023/05/28 03:39:01;;;;;;;18.67;7.28;;;;;;;15.68;51.98;100750.44;4121564;28;20550;-68
2023/05/28 03:41:23;;;;;;;13.23;5.50;;;;;;;15.63;52.34;100754.81;4118486;28;20134;-68
2023/05/28 03:43:44;;;;;;;12.90;5.63;;;;;;;15.60;52.54;100749.56;4125189;28;20567;-68
2023/05/28 03:46:06;;;;;;;13.38;5.40;;;;;;;15.63;52.55;100748.72;4119359;28;20049;-69
2023/05/28 03:48:30;;;;;;;13.05;6.05;;;;;;;15.65;52.73;100755.69;4118787;28;20433;-69
2023/05/28 03:50:52;;;;;;;13.30;5.78;;;;;;;15.61;52.58;100753.94;4110663;28;20049;-69
2023/05/28 03:53:15;;;;;;;10.10;5.97;;;;;;;15.58;52.92;100748.72;4110187;28;20133;-69
2023/05/28 03:55:38;;;;;;;19.92;5.72;;;;;;;15.60;52.68;100751.34;4110651;28;20141;-69
2023/05/28 03:58:00;;;;;;;11.48;4.72;;;;;;;15.53;52.59;100758.31;4112208;28;20098;-69
2023/05/28 04:00:21;;;;;;;13.75;5.78;;;;;;;15.49;52.77;100760.09;4112167;28;20067;-69
2023/05/28 04:02:43;;;;;;;14.18;6.40;;;;;;;15.42;52.88;100760.06;4122033;28;20041;-69
2023/05/28 04:05:05;;;;;;;12.85;5.30;;;;;;;15.43;53.55;100759.22;4120397;28;20081;-69
2023/05/28 04:07:27;;;;;;;15.82;5.72;;;;;;;15.38;53.44;100763.59;4122498;28;20138;-68
2023/05/28 04:09:49;;;;;;;11.50;5.70;;;;;;;15.35;53.16;100752.22;4125161;28;20141;-68
2023/05/28 04:12:13;;;;;;;12.45;5.78;;;;;;;15.36;53.30;100751.38;4119802;28;20046;-68
2023/05/28 04:14:34;;;;;;;14.38;6.80;;;;;;;15.40;53.72;100753.97;4119645;28;20130;-68
2023/05/28 04:16:57;;;;;;;16.45;5.85;;;;;;;15.38;54.01;100745.25;4123222;28;20134;-68
2023/05/28 04:19:19;;;;;;;15.10;6.20;;;;;;;15.44;53.39;100753.97;4108137;28;20054;-69
2023/05/28 04:21:41;;;;;;;15.02;6.93;;;;;;;15.39;53.78;100755.72;4105783;28;20162;-69
2023/05/28 04:24:03;;;;;;;12.02;5.25;;;;;;;15.36;53.83;100756.59;4106860;28;20106;-69
2023/05/28 04:26:25;;;;;;;12.48;5.72;;;;;;;15.36;53.53;100753.97;4120250;28;20384;-69
2023/05/28 04:28:48;;;;;;;13.15;5.75;;;;;;;15.31;54.30;100760.97;4108079;28;20058;-69
2023/05/28 04:31:10;;;;;;;12.68;5.43;;;;;;;15.30;53.83;100754.00;4120599;28;20113;-69
2023/05/28 04:33:31;;;;;;;12.23;5.78;;;;;;;15.36;54.13;100758.31;4119339;28;20439;-68
2023/05/28 04:35:53;;;;;;;10.93;5.57;;;;;;;15.38;53.15;100760.97;4108606;28;20432;-68
2023/05/28 04:38:15;;;;;;;11.60;5.55;;;;;;;15.39;53.07;100762.69;4111631;28;20609;-69
2023/05/28 04:40:37;;;;;;;12.30;5.60;;;;;;;15.30;53.39;100769.72;4112288;28;20089;-69
2023/05/28 04:42:59;;;;;;;15.23;6.10;;;;;;;15.39;53.22;100766.22;4109150;28;20050;-69
2023/05/28 04:45:24;;;;;;;13.48;5.85;;;;;;;15.36;53.70;100769.69;4111442;28;20183;-69
2023/05/28 04:47:45;;;;;;;11.18;5.53;;;;;;;15.42;53.62;100762.69;4124596;28;20057;-68
2023/05/28 04:50:07;;;;;;;11.55;6.10;;;;;;;15.38;52.98;100772.31;4106438;28;20425;-68
2023/05/28 04:52:30;;;;;;;14.00;5.75;;;;;;;15.53;52.86;100764.44;4126560;28;20101;-68
2023/05/28 04:54:53;;;;;;;11.75;6.38;;;;;;;15.53;53.43;100776.66;4113043;28;20053;-68
2023/05/28 04:57:15;;;;;;;15.55;6.47;;;;;;;15.53;53.28;100776.66;4123384;28;20455;-69
2023/05/28 04:59:37;;;;;;;12.93;6.53;;;;;;;15.53;52.87;100774.91;4113634;28;20065;-68
2023/05/28 05:02:00;;;;;;;11.90;6.13;;;;;;;15.66;52.50;100772.28;4112854;28;20137;-68
2023/05/28 05:04:23;;;;;;;14.80;6.30;;;;;;;15.67;53.34;100779.28;4124076;28;20134;-68
2023/05/28 05:06:45;;;;;;;12.55;6.43;;;;;;;15.77;52.98;100777.50;4113735;28;20050;-68
2023/05/28 05:09:07;;;;;;;12.13;6.07;;;;;;;15.71;53.02;100783.63;4125953;28;20053;-68
2023/05/28 05:11:29;;;;;;;12.48;6.13;;;;;;;15.79;52.74;100783.66;4114010;28;20439;-68
2023/05/28 05:13:51;;;;;;;13.35;6.60;;;;;;;15.78;52.38;100776.63;4122723;28;20049;-68
2023/05/28 05:16:13;;;;;;;13.50;6.00;;;;;;;15.78;52.10;100782.75;4113587;28;20105;-68
2023/05/28 05:18:36;;;;;;;12.88;6.03;;;;;;;15.78;52.81;100774.00;4114704;28;20156;-68
2023/05/28 05:20:58;;;;;;;11.10;5.90;;;;;;;15.86;53.10;100778.38;4126348;28;20112;-68
2023/05/28 05:23:19;;;;;;;11.27;5.45;;;;;;;15.94;52.50;100788.00;4112649;28;20161;-68
2023/05/28 05:25:43;;;;;;;13.75;6.30;;;;;;;15.99;52.15;100787.09;4108288;23;20094;-66
2023/05/28 05:28:05;;;;;;;11.13;5.47;;;;;;;16.05;51.98;100791.47;4083413;28;20054;-66
2023/05/28 05:30:27;;;;;;;12.82;6.05;;;;;;;16.08;51.47;100791.44;4079106;28;20198;-66
2023/05/28 05:32:48;;;;;;;10.52;4.93;;;;;;;16.13;51.53;100788.81;4080332;29;20094;-66
2023/05/28 05:35:12;;;;;;;12.30;5.90;;;;;;;16.18;51.41;100790.53;4088889;28;20077;-67
2023/05/28 05:38:03;;;;;;;10.77;5.03;;;;;;;16.36;51.18;100791.34;4081295;29;20532;-66
2023/05/28 05:40:58;;;;;;;11.30;5.60;;;;;;;16.47;51.08;100792.16;4071543;29;20051;-66
2023/05/28 05:43:41;;;;;;;13.60;5.50;;;;;;;16.60;50.88;100789.47;4086256;29;20056;-66
2023/05/28 05:46:02;;;;;;;10.52;5.63;;;;;;;16.65;50.91;100788.56;4068384;29;20143;-66
2023/05/28 05:48:26;;;;;;;13.20;5.53;;;;;;;16.81;50.16;100785.88;4084046;29;20075;-65
2023/05/28 05:50:51;;;;;;;12.30;5.82;;;;;;;16.80;50.38;100781.47;4070364;29;20107;-66
2023/05/28 05:53:12;;;;;;;11.90;5.90;;;;;;;17.04;49.88;100788.34;4083785;29;20127;-66
2023/05/28 05:55:34;;;;;;;9.70;5.18;;;;;;;17.03;49.60;100787.47;4083190;29;20099;-66
2023/05/28 05:57:58;;;;;;;10.80;4.50;;;;;;;16.94;50.19;100795.44;4083933;29;20057;-66
2023/05/28 06:00:20;;;;;;;10.82;5.03;;;;;;;16.92;50.78;100797.19;4083786;29;20055;-66
2023/05/28 06:02:47;;;;;;;10.35;5.72;;;;;;;16.99;50.71;100791.00;4080214;29;20103;-66
2023/05/28 06:05:44;;;;;;;10.13;5.90;;;;;;;17.19;49.91;100796.13;4083492;29;20046;-66
2023/05/28 06:08:29;;;;;;;10.90;5.93;;;;;;;17.30;49.42;100792.53;4080954;29;20475;-65
2023/05/28 06:11:06;;;;;;;10.30;5.13;;;;;;;17.42;48.54;100792.41;4072560;29;20050;-66
2023/05/28 06:13:28;;;;;;;11.55;5.90;;;;;;;17.47;48.78;100785.38;4081436;29;20135;-65
2023/05/28 06:15:50;;;;;;;11.35;6.32;;;;;;;17.58;48.07;100787.91;4080846;29;20216;-65
2023/05/28 06:18:12;;;;;;;10.60;5.13;;;;;;;17.67;47.44;100779.94;4069708;29;20131;-65
2023/05/28 06:20:34;;;;;;;12.93;6.20;;;;;;;17.63;48.13;100780.84;4072979;29;20055;-65
2023/05/28 06:22:55;;;;;;;11.75;5.97;;;;;;;17.74;47.62;100783.34;4078727;29;20086;-65
2023/05/28 06:25:21;;;;;;;10.80;5.22;;;;;;;17.84;47.39;100787.63;4081227;29;20098;-65
2023/05/28 06:27:44;;;;;;;10.55;4.97;;;;;;;17.93;46.03;100786.69;4081539;29;20114;-65
2023/05/28 06:30:07;;;;;;;17.73;6.07;;;;;;;17.96;46.03;100784.91;4082316;29;20045;-64
2023/05/28 06:32:28;;;;;;;9.43;4.88;;;;;;;17.92;46.52;100790.25;4066948;29;20585;-65
2023/05/28 06:34:50;;;;;;;11.18;4.78;;;;;;;18.02;46.77;100789.25;4078715;29;20560;-65
2023/05/28 06:37:12;;;;;;;11.40;5.43;;;;;;;18.16;46.47;100796.97;4069899;29;20078;-65
2023/05/28 06:39:34;;;;;;;10.82;5.00;;;;;;;18.14;46.30;100796.13;4071410;29;20066;-65
2023/05/28 06:41:58;;;;;;;9.85;4.80;;;;;;;18.32;45.93;100787.13;4081606;29;20603;-65
2023/05/28 06:44:45;;;;;;;9.98;5.93;;;;;;;18.51;45.31;100792.16;4082049;29;20055;-65
2023/05/28 06:47:10;;;;;;;9.93;5.65;;;;;;;18.47;45.58;100786.94;4082388;29;20185;-65
2023/05/28 06:49:31;;;;;;;11.10;5.65;;;;;;;18.63;45.94;100794.63;4074536;29;20051;-65
2023/05/28 06:51:53;;;;;;;8.95;5.03;;;;;;;18.68;45.63;100795.44;4067685;29;20544;-65
2023/05/28 06:54:16;;;;;;;11.38;5.35;;;;;;;18.75;45.34;100794.47;4084308;28;20054;-66
2023/05/28 06:56:38;;;;;;;12.88;5.95;;;;;;;18.84;45.35;100794.31;4071699;29;20174;-65
2023/05/28 06:59:35;;;;;;;12.25;5.82;;;;;;;18.92;45.44;100794.22;4075359;29;20130;-66
2023/05/28 07:02:10;;;;;;;10.13;5.18;;;;;;;18.95;45.31;100799.47;4081103;29;20139;-66
2023/05/28 07:04:50;;;;;;;9.23;5.25;;;;;;;19.05;45.04;100807.22;4078002;29;20123;-66
2023/05/28 07:07:17;;;;;;;13.38;5.47;;;;;;;19.19;44.48;100803.47;4079321;29;20107;-66
2023/05/28 07:09:39;;;;;;;10.85;5.20;;;;;;;19.18;45.18;100799.09;4080768;29;20103;-66
2023/05/28 07:12:01;;;;;;;9.13;5.05;;;;;;;19.27;44.75;100802.47;4078161;29;20056;-66
2023/05/28 07:14:23;;;;;;;11.65;5.32;;;;;;;19.31;44.45;100798.91;4080475;29;20103;-66
2023/05/28 07:16:46;;;;;;;10.27;4.93;;;;;;;19.42;44.51;100793.44;4079881;29;20099;-66
2023/05/28 07:19:08;;;;;;;9.60;4.50;;;;;;;19.56;44.42;100791.44;4076852;29;20062;-67
2023/05/28 07:21:31;;;;;;;9.52;4.40;;;;;;;19.63;43.98;100795.72;4079821;29;20100;-67
2023/05/28 07:23:53;;;;;;;11.48;5.28;;;;;;;19.80;42.75;100794.56;4060187;29;20593;-67
2023/05/28 07:26:15;;;;;;;9.55;4.40;;;;;;;19.80;43.40;100799.84;4079146;29;20055;-67
2023/05/28 07:28:37;;;;;;;11.85;5.18;;;;;;;19.95;43.38;100803.97;4080848;29;20494;-67
2023/05/28 07:30:59;;;;;;;14.40;5.60;;;;;;;20.07;42.87;100798.44;4079333;29;20108;-67
2023/05/28 07:33:21;;;;;;;15.00;5.82;;;;;;;20.25;42.10;100798.97;4081970;29;20054;-66
2023/05/28 07:35:43;;;;;;;10.38;5.32;;;;;;;20.27;41.97;100794.53;4066555;29;20533;-66
2023/05/28 07:38:05;;;;;;;11.57;4.80;;;;;;;20.19;42.10;100803.50;4078439;29;20054;-68
2023/05/28 07:40:26;;;;;;;10.60;5.32;;;;;;;20.33;40.01;100799.69;4066552;29;20116;-68
2023/05/28 07:42:53;;;;;;;11.57;5.53;;;;;;;20.28;40.81;100801.53;4078419;29;20614;-69
2023/05/28 07:45:14;;;;;;;8.50;4.60;;;;;;;20.22;42.22;100803.44;4070401;29;20072;-69
2023/05/28 07:47:37;;;;;;;9.63;5.22;;;;;;;20.43;41.84;100795.97;4080345;29;20448;-69
2023/05/28 07:50:07;;;;;;;11.35;5.20;;;;;;;20.46;41.62;100798.53;4079996;29;20087;-68
2023/05/28 07:52:48;;;;;;;9.38;4.30;;;;;;;20.54;41.09;100793.06;4078806;29;20321;-68
2023/05/28 07:55:10;;;;;;;10.93;4.90;;;;;;;20.60;39.11;100792.06;4062320;29;20051;-69
2023/05/28 07:57:33;;;;;;;10.65;4.75;;;;;;;20.66;40.24;100792.84;4064107;29;20055;-69
2023/05/28 07:59:55;;;;;;;11.10;5.30;;;;;;;20.86;39.42;100792.38;4077975;29;20191;-69
2023/05/28 08:02:17;;;;;;;8.25;4.40;;;;;;;20.85;39.94;100789.78;4063255;29;20108;-68
2023/05/28 08:04:38;;;;;;;14.82;5.55;;;;;;;20.99;39.94;100794.75;4080250;29;20050;-69
2023/05/28 08:07:01;;;;;;;10.70;5.38;;;;;;;21.03;39.42;100788.50;4077828;29;20075;-67
2023/05/28 08:09:23;;;;;;;15.75;5.18;;;;;;;21.13;39.34;100786.47;4065459;29;20086;-68
2023/05/28 08:11:47;;;;;;;8.32;4.30;;;;;;;21.04;39.46;100792.84;4079516;29;20584;-69
2023/05/28 08:14:09;;;;;;;10.80;4.40;;;;;;;21.14;37.80;100789.06;4079152;29;20047;-67
2023/05/28 08:16:33;;;;;;;11.02;4.30;;;;;;;21.06;38.46;100781.34;4079541;29;20450;-68
2023/05/28 08:19:09;;;;;;;12.10;5.28;;;;;;;21.16;39.42;100786.38;4076554;29;20095;-70
2023/05/28 08:21:32;;;;;;;13.88;4.45;;;;;;;21.23;39.39;100780.94;4067077;29;20056;-70
2023/05/28 08:23:57;;;;;;;13.05;5.93;;;;;;;21.49;38.89;100778.53;4064649;29;20625;-69
2023/05/28 08:26:18;;;;;;;8.95;4.07;;;;;;;21.41;39.41;100778.72;4066073;29;20442;-69
2023/05/28 08:28:40;;;;;;;11.73;5.28;;;;;;;21.60;38.38;100782.66;4082228;29;20057;-70
2023/05/28 08:31:02;;;;;;;9.90;4.78;;;;;;;21.55;37.95;100768.69;4079387;29;20132;-69
2023/05/28 08:33:43;;;;;;;12.30;5.63;;;;;;;21.70;39.45;100779.75;4068793;29;20063;-69
2023/05/28 08:36:06;;;;;;;12.65;5.63;;;;;;;21.60;39.53;100773.88;4083397;29;20588;-68
2023/05/28 08:38:29;;;;;;;12.73;5.40;;;;;;;21.79;39.84;100771.59;4072037;29;20054;-69
2023/05/28 08:40:55;;;;;;;7.72;4.13;;;;;;;21.82;39.70;100766.19;4079851;29;20079;-70
2023/05/28 08:43:18;;;;;;;9.00;5.53;;;;;;;22.08;39.26;100769.91;4070298;29;21269;-70
2023/05/28 08:45:41;;;;;;;9.50;5.07;;;;;;;22.00;37.90;100766.59;4074104;29;20478;-71
2023/05/28 08:48:06;;;;;;;9.38;5.55;;;;;;;22.03;38.49;100755.91;4072404;29;20058;-72
2023/05/28 08:50:33;;;;;;;10.77;4.95;;;;;;;22.16;38.29;100759.94;4082193;29;20101;-71
2023/05/28 08:53:08;;;;;;;8.88;4.40;;;;;;;22.11;38.33;100745.97;4076622;29;20091;-71
2023/05/28 08:55:30;;;;;;;10.25;5.10;;;;;;;22.12;38.66;100747.69;4068176;29;20484;-72
2023/05/28 08:58:22;;;;;;;11.30;5.53;;;;;;;22.37;39.10;100753.19;4080860;29;20062;-76
2023/05/28 09:00:45;;;;;;;14.43;5.55;;;;;;;22.46;38.51;100741.44;4069509;29;20058;-70
2023/05/28 09:03:24;;;;;;;11.32;5.38;;;;;;;22.31;38.44;100743.59;4069200;29;20066;-69
2023/05/28 09:05:47;;;;;;;9.77;5.47;;;;;;;22.38;38.84;100741.66;4081141;29;20561;-71
2023/05/28 09:08:11;;;;;;;13.50;5.65;;;;;;;22.49;39.11;100746.66;4082301;29;20059;-75
2023/05/28 09:10:33;;;;;;;11.27;5.22;;;;;;;22.54;38.49;100738.56;4077873;29;20136;-67
2023/05/28 09:12:58;;;;;;;9.93;4.80;;;;;;;22.51;39.06;100734.22;4082124;29;20050;-68
2023/05/28 09:15:24;;;;;;;12.68;5.53;;;;;;;22.67;38.93;100732.81;4080312;29;20122;-69
2023/05/28 09:17:47;;;;;;;13.00;6.20;;;;;;;22.99;37.65;100736.19;4082062;29;20538;-68
2023/05/28 09:20:16;;;;;;;10.27;5.25;;;;;;;22.83;38.18;100730.53;4079780;29;20075;-68
2023/05/28 09:22:39;;;;;;;10.75;4.68;;;;;;;22.97;38.61;100727.44;4080074;29;20063;-67
2023/05/28 09:25:17;;;;;;;12.43;4.68;;;;;;;23.01;38.64;100717.59;4069694;29;20063;-66
2023/05/28 09:28:08;;;;;;;8.85;4.93;;;;;;;23.12;37.85;100727.88;4075535;29;20414;-67
2023/05/28 09:30:35;;;;;;;9.95;4.70;;;;;;;23.24;38.50;100719.50;4079622;29;20051;-68
2023/05/28 09:33:01;;;;;;;11.63;5.03;;;;;;;23.42;36.84;100717.13;4083439;29;20067;-66
2023/05/28 09:35:25;;;;;;;11.15;5.75;;;;;;;23.47;36.69;100708.06;4084780;29;20051;-65
2023/05/28 09:37:47;;;;;;;8.82;5.05;;;;;;;23.42;36.63;100707.38;4073560;29;20047;-64
2023/05/28 09:40:09;;;;;;;9.13;3.90;;;;;;;23.46;37.01;100700.16;4085041;29;20100;-65
2023/05/28 09:42:40;;;;;;;8.02;4.18;;;;;;;23.53;36.83;100707.84;4068942;29;20140;-65
2023/05/28 09:45:02;;;;;;;9.35;5.15;;;;;;;23.60;36.62;100705.00;4084855;29;20326;-65
2023/05/28 09:47:26;;;;;;;7.32;4.13;;;;;;;23.69;36.97;100700.19;4072686;29;20074;-65
2023/05/28 09:49:49;;;;;;;9.00;5.10;;;;;;;23.86;37.05;100699.63;4083766;29;20074;-65
2023/05/28 09:52:17;;;;;;;11.77;4.90;;;;;;;24.00;36.14;100695.56;4079111;29;20059;-65
2023/05/28 09:54:40;;;;;;;9.70;4.38;;;;;;;24.10;35.93;100702.25;4084077;29;20638;-66
2023/05/28 09:57:03;;;;;;;13.13;5.82;;;;;;;24.15;36.11;100696.78;4085165;29;20055;-68
2023/05/28 09:59:25;;;;;;;9.98;5.10;;;;;;;24.11;35.27;100692.50;4082664;29;20050;-67
2023/05/28 10:01:56;;;;;;;8.65;4.43;;;;;;;24.16;35.65;100693.19;4082630;29;20055;-67
2023/05/28 10:04:28;;;;;;;9.95;4.38;;;;;;;24.22;35.28;100684.97;4076484;29;20055;-67
2023/05/28 10:06:57;;;;;;;9.95;4.93;;;;;;;24.17;35.21;100689.63;4082122;29;20537;-65
2023/05/28 10:09:20;;;;;;;11.05;5.80;;;;;;;24.38;34.31;100691.41;4080434;29;20577;-75
2023/05/28 10:11:45;;;;;;;11.20;4.93;;;;;;;24.34;33.63;100687.16;4078931;29;20062;-66
2023/05/28 10:14:07;;;;;;;17.13;6.00;;;;;;;24.30;33.51;100682.00;4075610;29;20091;-66
2023/05/28 10:16:29;;;;;;;8.20;4.50;;;;;;;24.20;34.74;100692.16;4081427;29;20054;-66
2023/05/28 10:18:52;;;;;;;10.95;4.43;;;;;;;24.27;35.12;100696.31;4081052;29;20054;-66
2023/05/28 10:21:15;;;;;;;7.07;3.88;;;;;;;24.31;35.34;100692.59;4077825;29;20090;-71
2023/05/28 10:23:37;;;;;;;9.13;4.15;;;;;;;24.50;34.89;100697.19;4080183;29;20159;-67
2023/05/28 10:25:59;;;;;;;10.20;4.68;;;;;;;24.72;33.76;100684.78;4080489;29;20111;-67
2023/05/28 10:28:22;;;;;;;10.20;5.63;;;;;;;24.68;33.27;100692.97;4080104;29;20138;-66
2023/05/28 10:30:43;;;;;;;9.43;4.25;;;;;;;24.73;33.67;100691.81;4066985;29;20204;-66
2023/05/28 10:33:06;;;;;;;7.78;3.92;;;;;;;24.54;34.27;100688.16;4080627;29;20047;-66
2023/05/28 10:35:27;;;;;;;9.63;4.25;;;;;;;24.58;34.53;100695.94;4079327;29;20104;-66
2023/05/28 10:37:50;;;;;;;10.80;4.43;;;;;;;24.63;34.54;100690.47;4075031;29;20095;-66
2023/05/28 10:40:23;;;;;;;12.00;5.15;;;;;;;24.80;32.77;100683.59;4077969;29;20089;-66
2023/05/28 10:42:44;;;;;;;8.55;4.55;;;;;;;24.72;32.78;100687.44;4079103;29;20054;-67
2023/05/28 10:45:08;;;;;;;8.40;4.40;;;;;;;24.67;32.52;100688.56;4077771;29;20090;-65
2023/05/28 10:47:32;;;;;;;6.47;4.03;;;;;;;24.60;33.80;100687.06;4078521;29;20147;-66
2023/05/28 10:50:02;;;;;;;10.63;5.95;;;;;;;24.84;33.02;100690.53;4080060;29;20552;-66
2023/05/28 10:52:37;;;;;;;7.65;4.53;;;;;;;24.78;33.57;100683.66;4075822;29;20418;-66
2023/05/28 10:55:03;;;;;;;10.02;4.75;;;;;;;24.86;33.60;100686.00;4078951;29;20054;-66
2023/05/28 10:57:25;;;;;;;11.75;4.13;;;;;;;24.91;33.26;100682.22;4079091;29;20135;-65
2023/05/28 10:59:48;;;;;;;8.30;3.90;;;;;;;25.01;32.69;100672.03;4067756;29;20126;-65
2023/05/28 11:02:11;;;;;;;9.63;4.10;;;;;;;25.01;32.22;100665.88;4081224;29;20513;-65
2023/05/28 11:04:34;;;;;;;13.55;5.43;;;;;;;25.08;31.98;100657.53;4073118;29;20043;-65